Fortune Amaryllis — VRDT3 — position and weather

sailwx.info

Track history (hours):
 
Tides and Currents Weather Stations Pressure Air Temp Water Temp Dewpoint Dewpoint Depression Visibility Wind Speed Wind Dir Waves Ship Positions

Fortune Amaryllis

Last reported at 2014-Nov-05 14:32 UTC. Time now 2014-Nov-27 08:20 UTC.
Position S 26°49' E 153°35'.
Warning: this ship's position is 21 days out of date.

Length 175 m; draft 6.4 m.

Type: Cargo ship. MMSI: 477046800.

Date/timePositionNaut miles runAvg speedWind from/ knotsBaromVisibWave heightAir tempDewpointWater temp
2014-Nov-05 14:32S 26°49' E 153°35'1211.6
2014-Nov-05 13:29S 26°45' E 153°22'1111.3
2014-Nov-05 12:32S 26°42' E 153°11'1111.2
2014-Nov-05 11:33S 26°54' E 153°11'1413.1
2014-Nov-05 10:30S 27°05' E 153°19'1010.4
2014-Nov-05 09:33S 27°15' E 153°16'1110.8
2014-Nov-05 08:34S 27°24' E 153°09'3 2.5
2014-Nov-05 07:28S 27°26' E 153°07'0 0.1
2014-Nov-05 06:28S 27°26' E 153°07'0 0.1
2014-Nov-05 05:25S 27°26' E 153°07'0 0.0
2014-Nov-05 04:16S 27°26' E 153°07'0 0.0
2014-Nov-05 03:28S 27°26' E 153°07'0 0.0
2014-Nov-05 02:28S 27°26' E 153°07'0 0.0
2014-Nov-05 01:19S 27°26' E 153°07'0 0.0
2014-Nov-04 23:28S 27°26' E 153°07'0 0.1
2014-Nov-04 22:25S 27°26' E 153°07'0 0.0
2014-Nov-04 21:31S 27°26' E 153°07'0 0.1
2014-Nov-04 20:31S 27°26' E 153°07'0 0.0
2014-Nov-04 19:28S 27°26' E 153°07'0 0.1
2014-Nov-04 18:31S 27°26' E 153°07'0 0.0
2014-Nov-04 17:31S 27°26' E 153°07'0 0.1
2014-Nov-04 16:31S 27°26' E 153°07'0 0.0
2014-Nov-04 15:31S 27°26' E 153°07'0 0.0
2014-Nov-04 14:31S 27°26' E 153°07'0 0.0
2014-Nov-04 12:28S 27°26' E 153°07'0 0.0
2014-Nov-04 07:04S 27°26' E 153°07'0 0.0
2014-Nov-04 03:19S 27°26' E 153°07'0 0.1
2014-Nov-04 02:31S 27°26' E 153°07'0 0.0
2014-Nov-04 01:31S 27°26' E 153°07'0 0.1
2014-Nov-04 00:31S 27°26' E 153°07'0 0.1
2014-Nov-03 23:31S 27°26' E 153°07'0 0.1
2014-Nov-03 22:31S 27°26' E 153°07'0 0.1
2014-Nov-03 21:31S 27°26' E 153°07'0 0.0
2014-Nov-03 20:31S 27°26' E 153°07'0 0.0
2014-Nov-03 19:31S 27°26' E 153°07'0 0.0
2014-Nov-03 19:04S 27°26' E 153°07'0 0.0
2014-Nov-03 18:31S 27°26' E 153°07'0 0.0
2014-Nov-03 18:07S 27°26' E 153°07'0 0.2
2014-Nov-03 17:46S 27°26' E 153°07'0 0.1
2014-Nov-03 17:23S 27°26' E 153°07'0 0.0
2014-Nov-03 16:31S 27°26' E 153°07'0 0.0
2014-Nov-03 14:31S 27°26' E 153°07'0 0.0
2014-Nov-03 13:31S 27°26' E 153°07'0 0.0
2014-Nov-03 12:31S 27°26' E 153°07'0 0.0
2014-Nov-03 11:31S 27°26' E 153°07'0 0.1
2014-Nov-03 10:31S 27°26' E 153°07'0 0.1
2014-Nov-03 09:31S 27°26' E 153°07'0 0.0
2014-Nov-03 08:31S 27°26' E 153°07'0 0.1
2014-Nov-03 07:31S 27°26' E 153°07'0 0.1
2014-Nov-03 06:31S 27°26' E 153°07'0 0.0
2014-Nov-03 05:31S 27°26' E 153°07'0 0.0
2014-Nov-03 04:31S 27°26' E 153°07'0 0.0
2014-Nov-03 03:31S 27°26' E 153°07'0 0.1
2014-Nov-03 02:31S 27°26' E 153°07'0 0.0
2014-Nov-03 01:31S 27°26' E 153°07'0 0.1
2014-Nov-03 00:31S 27°26' E 153°07'0 0.1
2014-Nov-02 23:31S 27°26' E 153°07'0 0.0
2014-Nov-02 22:28S 27°26' E 153°07'0 0.0
2014-Nov-02 21:28S 27°26' E 153°07'0 0.1
2014-Nov-02 20:33S 27°26' E 153°07'1 0.6
2014-Nov-02 19:34S 27°25' E 153°08'8 8.1
2014-Nov-02 18:33S 27°18' E 153°13'1212.1
2014-Nov-02 17:33S 27°09' E 153°21'1212.4
2014-Nov-02 16:33S 26°58' E 153°14'1110.7
2014-Nov-02 15:33S 26°48' E 153°11'7 7.4
2014-Nov-02 14:33S 26°41' E 153°13'6 6.3
2014-Nov-02 13:33S 26°36' E 153°18'9 1.8
2014-Nov-02 08:30S 26°32' E 153°27'1 1.0
2014-Nov-02 07:13S 26°33' E 153°28'  
Track history (hours):
 
Tides and Currents Weather Stations Pressure Air Temp Water Temp Dewpoint Dewpoint Depression Visibility Wind Speed Wind Dir Waves Ship Positions

Fortune Amaryllis

Last reported at 2014-Nov-05 14:32 UTC. Time now 2014-Nov-27 08:20 UTC.
Position S 26°49' E 153°35'.
Warning: this ship's position is 21 days out of date.

Length 175 m; draft 6.4 m.

Type: Cargo ship. MMSI: 477046800.

Date/timePositionNaut miles runAvg speedWind from/ knotsBaromVisibWave heightAir tempDewpointWater temp
2014-Nov-05 14:32S 26°49' E 153°35'1211.6
2014-Nov-05 13:29S 26°45' E 153°22'1111.3
2014-Nov-05 12:32S 26°42' E 153°11'1111.2
2014-Nov-05 11:33S 26°54' E 153°11'1413.1
2014-Nov-05 10:30S 27°05' E 153°19'1010.4
2014-Nov-05 09:33S 27°15' E 153°16'1110.8
2014-Nov-05 08:34S 27°24' E 153°09'3 2.5
2014-Nov-05 07:28S 27°26' E 153°07'0 0.1
2014-Nov-05 06:28S 27°26' E 153°07'0 0.1
2014-Nov-05 05:25S 27°26' E 153°07'0 0.0
2014-Nov-05 04:16S 27°26' E 153°07'0 0.0
2014-Nov-05 03:28S 27°26' E 153°07'0 0.0
2014-Nov-05 02:28S 27°26' E 153°07'0 0.0
2014-Nov-05 01:19S 27°26' E 153°07'0 0.0
2014-Nov-04 23:28S 27°26' E 153°07'0 0.1
2014-Nov-04 22:25S 27°26' E 153°07'0 0.0
2014-Nov-04 21:31S 27°26' E 153°07'0 0.1
2014-Nov-04 20:31S 27°26' E 153°07'0 0.0
2014-Nov-04 19:28S 27°26' E 153°07'0 0.1
2014-Nov-04 18:31S 27°26' E 153°07'0 0.0
2014-Nov-04 17:31S 27°26' E 153°07'0 0.1
2014-Nov-04 16:31S 27°26' E 153°07'0 0.0
2014-Nov-04 15:31S 27°26' E 153°07'0 0.0
2014-Nov-04 14:31S 27°26' E 153°07'0 0.0
2014-Nov-04 12:28S 27°26' E 153°07'0 0.0
2014-Nov-04 07:04S 27°26' E 153°07'0 0.0
2014-Nov-04 03:19S 27°26' E 153°07'0 0.1
2014-Nov-04 02:31S 27°26' E 153°07'0 0.0
2014-Nov-04 01:31S 27°26' E 153°07'0 0.1
2014-Nov-04 00:31S 27°26' E 153°07'0 0.1
2014-Nov-03 23:31S 27°26' E 153°07'0 0.1
2014-Nov-03 22:31S 27°26' E 153°07'0 0.1
2014-Nov-03 21:31S 27°26' E 153°07'0 0.0
2014-Nov-03 20:31S 27°26' E 153°07'0 0.0
2014-Nov-03 19:31S 27°26' E 153°07'0 0.0
2014-Nov-03 19:04S 27°26' E 153°07'0 0.0
2014-Nov-03 18:31S 27°26' E 153°07'0 0.0
2014-Nov-03 18:07S 27°26' E 153°07'0 0.2
2014-Nov-03 17:46S 27°26' E 153°07'0 0.1
2014-Nov-03 17:23S 27°26' E 153°07'0 0.0
2014-Nov-03 16:31S 27°26' E 153°07'0 0.0
2014-Nov-03 14:31S 27°26' E 153°07'0 0.0
2014-Nov-03 13:31S 27°26' E 153°07'0 0.0
2014-Nov-03 12:31S 27°26' E 153°07'0 0.0
2014-Nov-03 11:31S 27°26' E 153°07'0 0.1
2014-Nov-03 10:31S 27°26' E 153°07'0 0.1
2014-Nov-03 09:31S 27°26' E 153°07'0 0.0
2014-Nov-03 08:31S 27°26' E 153°07'0 0.1
2014-Nov-03 07:31S 27°26' E 153°07'0 0.1
2014-Nov-03 06:31S 27°26' E 153°07'0 0.0
2014-Nov-03 05:31S 27°26' E 153°07'0 0.0
2014-Nov-03 04:31S 27°26' E 153°07'0 0.0
2014-Nov-03 03:31S 27°26' E 153°07'0 0.1
2014-Nov-03 02:31S 27°26' E 153°07'0 0.0
2014-Nov-03 01:31S 27°26' E 153°07'0 0.1
2014-Nov-03 00:31S 27°26' E 153°07'0 0.1
2014-Nov-02 23:31S 27°26' E 153°07'0 0.0
2014-Nov-02 22:28S 27°26' E 153°07'0 0.0
2014-Nov-02 21:28S 27°26' E 153°07'0 0.1
2014-Nov-02 20:33S 27°26' E 153°07'1 0.6
2014-Nov-02 19:34S 27°25' E 153°08'8 8.1
2014-Nov-02 18:33S 27°18' E 153°13'1212.1
2014-Nov-02 17:33S 27°09' E 153°21'1212.4
2014-Nov-02 16:33S 26°58' E 153°14'1110.7
2014-Nov-02 15:33S 26°48' E 153°11'7 7.4
2014-Nov-02 14:33S 26°41' E 153°13'6 6.3
2014-Nov-02 13:33S 26°36' E 153°18'9 1.8
2014-Nov-02 08:30S 26°32' E 153°27'1 1.0
2014-Nov-02 07:13S 26°33' E 153°28'  

Dump ship's entire track history